Weather observations for the past three days for
Watauga County Hospital Heliport
Metric (Imperial)
Date Time (edt) Wind (kph) Vis. (km) Weather Sky Cond. Temperature (ºC) Relative Humidity Wind Chill (°C) Heat Index (°C) Pressure Precipitation (cm)
Air Dwpt 6 hour altimeter (cm) sea level (mb) 1 hr 3 hr 6 hr
Max. Min.
08 21:15 S 7 16.09 NULL NULL 12.4 6 65% 76.17 0.0
08 20:55 Calm 16.09 NULL NULL 12.6 5.8 64% 76.17 0.0
08 20:35 W 9 16.09 NULL NULL 13 5.7 61% 76.17 0.0
08 20:15 NE 6 16.09 NULL NULL 13.1 5.8 61% 76.15 0.0
08 19:55 Calm 16.09 NULL NULL 14 5.7 18.2 14 58% 76.15 0.0
08 19:35 S 6 16.09 NULL NULL 14.4 5.2 54% 76.12 0.0
08 19:15 SE 6 16.09 NULL NULL 14.3 5 54% 76.12 0.0
08 18:55 Calm 16.09 NULL NULL 15.1 4.5 49% 76.12 0.0
08 18:35 Calm 16.09 NULL NULL 16.4 3.9 44% 76.15 0.0
08 18:15 S 13 G 26 16.09 NULL NULL 16.4 3.1 41% 76.15 0.0
08 17:55 SW 11 16.09 NULL NULL 16.6 3.6 42% 76.1 0.0
08 17:35 S 6 16.09 NULL NULL 15.9 3.6 44% 76.07 0.0
08 17:15 SW 7 16.09 NULL NULL 16.7 3.2 41% 76.1 0.0
08 16:55 SW 11 16.09 NULL NULL 17 0.7 33% 76.1 0.0
08 16:35 S 7 16.09 NULL NULL 17.7 0.1 31% 76.12 0.0
08 16:15 S 17 16.09 NULL NULL 16.9 -0.4 31% 76.17 0.0
08 15:55 S 11 16.09 NULL NULL 17.6 -0.3 30% 76.17 0.0
08 15:35 SW 13 16.09 NULL NULL 17.7 -2.2 26% 76.2 0.0
08 15:15 W 7 16.09 NULL NULL 16.9 -3.3 25% 76.2 0.0
08 14:55 SW 11 16.09 NULL NULL 17.4 -1.9 27% 76.23 0.0
08 14:35 SW 6 16.09 NULL NULL 17.5 -3 25% 76.25 0.0
08 14:15 S 9 G 26 16.09 NULL NULL 17.3 -1.4 28% 76.28 0.0
08 13:55 SE 11 16.09 NULL NULL 16.5 -1 17.5 6 30% 76.28 0.0
08 13:35 SE 13 16.09 NULL NULL 16.6 -0.9 31% 76.3 0.0
08 13:15 SE 9 16.09 NULL NULL 16.1 -0.5 32% 76.3 0.0
08 12:55 Calm 16.09 NULL NULL 15.6 -3.4 27% 76.33 0.0
08 12:35 SE 9 16.09 NULL NULL 16.4 -0.4 32% 76.35 0.0
08 12:15 SE 6 16.09 NULL NULL 16 0.3 35% 76.35 0.0
08 11:55 S 6 16.09 NULL NULL 15.2 0.5 37% 76.38 0.0
08 11:35 E 9 16.09 NULL NULL 14.9 1.1 39% 76.38 0.0
08 11:15 SE 7 16.09 NULL NULL 14.3 0.3 39% 76.4 0.0
08 10:55 E 11 16.09 NULL NULL 13.5 0.2 40% 76.4 0.0
08 10:35 E 6 16.09 NULL NULL 13.1 -2.7 34% 76.4 0.0
08 10:15 Calm 16.09 NULL NULL 12.2 -2.7 36% 76.4 0.0
08 09:55 Calm 16.09 NULL NULL 11.3 -3.1 37% 76.4 0.0
08 09:35 NW 7 16.09 NULL NULL 10.1 -1.4 45% 76.38 0.0
08 09:15 NW 13 16.09 NULL NULL 9.5 -0.9 49% 8 76.38 0.0
08 08:35 W 7 16.09 NULL NULL 8 -0.7 55% 7 76.35 0.0
08 08:15 W 11 16.09 NULL NULL 7.4 0.1 60% 6 76.35 0.0
08 07:55 Calm 16.09 NULL NULL 6 2.4 8.1 4.5 78% 76.33 0.0
08 07:35 Calm 16.09 NULL NULL 5.1 2.2 82% 76.3 0.0
08 07:15 W 11 16.09 NULL NULL 5.6 0.5 70% 3 76.28 0.0
08 06:55 Calm 16.09 NULL NULL 4.6 1.4 80% 76.28 0.0
08 06:35 NW 9 16.09 NULL NULL 4.5 2.1 85% 3 76.25 0.0
08 06:15 W 19 16.09 NULL NULL 4.7 2.1 83% 1 76.23 0.0
08 05:55 W 15 16.09 NULL NULL 5.1 2.1 81% 2 76.2 0.0
08 05:35 W 13 16.09 NULL NULL 5.6 2.2 79% 3 76.2 0.0
08 05:15 NW 15 16.09 NULL NULL 5.7 2.3 79% 3 76.2 0.0
08 04:55 W 13 16.09 NULL NULL 6.2 1.9 74% 4 76.2 0.0
08 04:35 W 13 16.09 NULL NULL 6.5 1.6 71% 4 76.2 0.0
08 04:15 W 17 16.09 NULL NULL 6.5 2.1 74% 4 76.2 0.0
08 03:55 NW 17 16.09 NULL NULL 6.6 2.2 74% 4 76.17 0.0
08 03:35 W 19 16.09 NULL NULL 6.9 2.9 76% 4 76.17 0.0
08 03:15 NW 17 16.09 NULL NULL 7 3.9 81% 4 76.15 0.0
08 02:55 NW 19 16.09 NULL NULL 7.1 4.8 85% 4 76.17 0.0
08 02:35 NW 24 16.09 NULL NULL 7.3 5.4 88% 4 76.15 0.0
08 02:15 NW 20 16.09 NULL NULL 8 5.9 87% 5 76.17 0.0
08 01:55 NW 15 16.09 NULL NULL 8.2 5.8 9.7 7.6 85% 6 76.2 0.0
08 01:35 NW 13 16.09 NULL NULL 8.2 6.1 87% 6 76.2 0.0
08 01:15 W 11 16.09 NULL NULL 8.5 6.3 86% 7 76.2 0.0
08 00:55 NW 9 16.09 NULL NULL 8.3 6.3 87% 7 76.2 0.0
08 00:35 W 9 16.09 NULL NULL 8.3 6.3 87% 7 76.17 0.0
08 00:15 W 9 16.09 NULL NULL 8.2 6.2 87% 7 76.17 0.0
07 23:55 W 7 16.09 NULL NULL 8.1 6.1 87% 7 76.17 0.0
07 23:35 Calm 16.09 NULL NULL 8 6.1 88% 76.2 0.0
07 23:15 W 7 16.09 NULL NULL 7.8 6.1 89% 7 76.17 0.0
07 22:55 W 6 16.09 NULL NULL 7.6 5.7 88% 76.17 0.0
07 22:35 NW 6 16.09 NULL NULL 7.8 6 89% 76.17 0.0
07 22:15 W 6 16.09 NULL NULL 8 6 87% 76.15 0.0
07 21:55 W 7 16.09 NULL NULL 8 6.1 88% 7 76.12 0.0
07 21:35 W 7 16.09 NULL NULL 8.2 6.1 87% 7 76.1 0.0
07 21:15 W 9 16.09 NULL NULL 8.5 6 84% 7 76.1 0.0
07 20:55 W 9 16.09 NULL NULL 8.6 6 84% 7 76.07 0.0
07 20:35 W 9 16.09 NULL NULL 8.8 5.9 82% 8 76.05 0.0
07 20:15 W 7 16.09 NULL NULL 9.5 6.3 81% 9 76.05 0.0
07 19:55 NW 9 16.09 NULL NULL 9.2 6 15.8 9.1 81% 8 76.05 0.0
07 19:35 NW 15 G 20 16.09 NULL NULL 9.5 6 79% 8 76.05 0.0
07 19:15 W 13 G 28 16.09 NULL NULL 9.7 5.9 77% 8 76.05 0.0
07 18:55 NW 19 G 28 16.09 NULL NULL 10 6.4 79% 8 76.02 0.0
07 18:35 W 15 G 33 11.27 NULL NULL 9.1 6.5 84% 7 76.02 0.0
07 18:15 NW 22 G 41 16.09 NULL NULL 10.1 6.3 77% 76 0.0
07 17:55 NW 31 G 43 16.09 NULL NULL 10.7 7.2 79% 75.97 0.0
07 17:35 W 26 G 46 6.44 Haze NULL 10.3 7.4 82% 75.95 0.0
07 17:15 W 33 G 46 11.27 Breezy NULL 11.2 7.3 77% 75.92 0.0
07 16:55 W 30 G 46 16.09 NULL NULL 12.2 7.5 73% 75.9 0.0
07 16:35 NW 30 G 54 16.09 NULL NULL 13.1 7.5 69% 75.9 0.0
07 16:15 W 30 G 44 16.09 NULL NULL 13.9 7.9 67% 75.87 0.0
07 15:55 W 35 G 46 16.09 Breezy NULL 14 8.3 69% 75.87 0.0
07 15:35 NW 35 G 44 16.09 Breezy NULL 13.9 8.4 70% 75.9 0.0
07 15:15 NW 24 G 46 16.09 NULL NULL 15.2 9 67% 75.9 0.0
07 14:55 NW 33 G 43 16.09 Breezy NULL 15.4 9.1 66% 75.9 0.0
07 14:35 W 31 G 44 16.09 NULL NULL 15.5 9.5 68% 75.9 0.0
07 14:15 NW 20 G 41 16.09 NULL NULL 14.6 9.2 70% 75.92 0.0
07 13:55 NW 26 G 43 16.09 NULL NULL 14.9 9.6 18.2 13.6 71% 75.9 0.0
07 13:35 W 22 G 43 16.09 NULL NULL 15.5 10.2 71% 75.9 0.0
07 13:15 W 22 G 37 16.09 NULL NULL 14.9 10.4 75% 75.9 0.0
07 12:55 W 20 G 35 16.09 NULL NULL 15 10.8 76% 75.9 0.0
07 12:35 NW 20 G 33 16.09 NULL NULL 16 11.3 74% 75.9 0.0
07 12:15 W 19 G 31 16.09 NULL NULL 16.3 11 71% 75.9 0.0
07 11:55 W 19 G 35 16.09 NULL NULL 18.2 12.3 69% 75.87 0.0
07 11:35 W 13 16.09 NULL NULL 16.3 11.9 75% 75.87 0.0
07 11:15 W 17 16.09 NULL NULL 15.9 12.7 81% 75.9 0.0
07 10:55 W 9 16.09 NULL NULL 14.5 13.3 93% 75.9 0.0
07 10:35 W 13 16.09 NULL NULL 14.5 14.1 97% 75.9 0.0
07 10:15 W 15 16.09 NULL NULL 15 14.7 98% 75.9 0.0
07 09:55 W 17 16.09 NULL NULL 15.3 14.5 95% 75.9 0.0
07 09:35 NW 6 16.09 NULL NULL 15.5 15 97% 75.87 0.0
07 09:15 Calm 16.09 NULL NULL 15 15 100% 75.87 0.0
07 08:55 Calm 16.09 NULL NULL 14.6 14.6 100% 75.9 0.0
07 08:35 Calm 16.09 NULL NULL 14.2 14.2 100% 75.9 0.0
07 08:15 Calm 16.09 Light Drizzle NULL 13.8 13.8 100% 75.95 0.0
07 07:55 S 6 11.27 Light Rain NULL 13.6 13.6 14.5 13.3 100% 75.95 0.0 0.05 0.08
07 07:35 Calm 16.09 Drizzle NULL 13.5 13.5 100% 75.97 0.0 0.03
07 07:15 Calm 16.09 NULL NULL 13.4 13.4 100% 75.95 0.0
07 06:55 Calm 11.27 Rain NULL 13.5 13.5 100% 75.9 0.0 0.03
07 06:35 Calm 16.09 Drizzle NULL 13.7 13.7 100% 75.9 0.0 0.03
07 06:15 Calm 16.09 Light Drizzle NULL 13.5 13.5 100% 75.87 0.0
07 05:55 Calm 16.09 NULL NULL 13.5 13.5 100% 75.92 0.0
07 05:35 Calm 16.09 Light Rain NULL 13.5 13.5 100% 75.92 0.0
07 05:15 Calm 16.09 NULL NULL 13.5 13.5 100% 75.92 0.0
07 04:55 Calm 16.09 NULL NULL 13.9 13.9 100% 75.92 0.0
07 04:35 Calm 16.09 NULL NULL 14 14 100% 75.9 0.0
07 04:15 W 6 16.09 NULL NULL 14 14 100% 75.95 0.0
07 03:55 W 7 16.09 NULL NULL 14 14 100% 75.97 0.0
07 03:35 Calm 16.09 NULL NULL 13.8 13.8 100% 75.95 0.0
07 03:15 Calm 16.09 NULL NULL 13.9 13.9 100% 75.92 0.0
07 02:55 Calm 16.09 Light Rain NULL 13.8 13.8 100% 75.97 0.0
07 02:35 Calm 16.09 NULL NULL 14.1 14.1 100% 76 0.0
07 02:15 Calm 16.09 Light Rain NULL 14.4 14.4 100% 76 0.0
07 01:55 Calm 16.09 NULL NULL 14.2 14.2 17 14 100% 76.02 0.0 0.13
07 01:35 Calm 16.09 NULL NULL 14.6 14.6 100% 76.05 0.0
07 01:15 W 6 16.09 NULL NULL 15 14.7 98% 76.07 0.0
07 00:55 W 7 16.09 NULL NULL 15.1 14.7 97% 76.07 0.0
07 00:35 W 9 16.09 NULL NULL 15 15 100% 76.15 0.0
07 00:15 W 11 16.09 NULL NULL 15 15 100% 76.15 0.0
06 23:55 W 13 16.09 NULL NULL 14.9 14.9 100% 76.12 0.0
06 23:15 W 17 16.09 NULL NULL 14.7 14.7 100% 76.07 0.0
06 22:55 W 17 16.09 NULL NULL 14.6 14.6 100% 76.05 0.0 0.05 0.13
06 22:35 W 9 16.09 Light Rain NULL 14.7 14.6 99% 76.07 0.0 0.05
06 22:15 W 17 16.09 Rain NULL 14.8 14.6 99% 76.2 0.0 0.03
06 21:55 W 9 16.09 Light Rain NULL 15.1 14.4 96% 76.17 0.0 0.08
06 21:35 W 9 16.09 Light Rain NULL 15.3 13.3 88% 76.15 0.0 0.05
06 21:15 W 11 16.09 Rain NULL 15.6 13.2 86% 76.12 0.0
06 20:55 SW 11 16.09 Light Rain NULL 16.3 12.6 79% 76.1 0.0
06 20:35 SW 17 16.09 Light Rain NULL 16.3 12.9 80% 76.07 0.0
06 20:15 SW 15 16.09 Drizzle NULL 16.7 12.6 77% 76.1 0.0
06 19:55 SW 13 16.09 Light Rain NULL 17 12.6 22.2 17 75% 76.07 0.0
06 19:35 SW 13 16.09 Light Rain NULL 17.3 13.6 79% 76.07 0.0
06 18:55 W 7 16.09 NULL NULL 17.6 13.5 77% 76.05 0.0
06 18:35 SW 13 16.09 Light Drizzle NULL 17.4 14.1 81% 76.05 0.0
06 18:15 S 11 16.09 Light Rain NULL 17.7 13.8 78% 76.07 0.0
06 17:35 S 9 16.09 NULL NULL 18.8 13.3 71% 76.07 0.0
06 17:15 W 11 16.09 NULL NULL 19.1 13.3 69% 76.07 0.0
06 16:55 SW 13 16.09 NULL NULL 20.5 12.8 61% 76.05 0.0
06 16:35 SW 13 G 31 16.09 NULL NULL 20.9 12 57% 76 0.0
06 16:15 SW 17 G 41 16.09 NULL NULL 21.5 11.6 53% 76.05 0.0
06 15:55 W 15 G 30 16.09 NULL NULL 21.3 12 56% 76.05 0.0
06 15:35 W 15 G 28 16.09 NULL NULL 22.2 11.9 52% 76.07 0.0
06 15:15 SW 17 G 26 16.09 NULL NULL 21.5 12 55% 76.05 0.0
06 14:55 W 11 G 30 16.09 NULL NULL 21.7 11.7 53% 76.05 0.0
06 14:35 W 15 G 26 16.09 NULL NULL 21.1 11.7 55% 76.05 0.0
06 14:15 W 13 16.09 NULL NULL 19.6 11.9 61% 76.05 0.0
06 13:55 W 9 16.09 NULL NULL 19.1 12.1 19.5 14.9 64% 76.05 0.0
06 13:35 SW 17 G 26 16.09 NULL NULL 19.2 12.2 64% 76.07 0.0
06 13:15 W 11 16.09 NULL NULL 18 12.2 69% 76.1 0.0
06 12:55 W 15 16.09 NULL NULL 17.1 12.1 73% 76.2 0.0
06 12:35 W 22 G 44 16.09 Rain NULL 16.7 12.1 74% 76.17 0.0
06 12:15 W 20 G 44 16.09 Drizzle NULL 18.3 11.6 65% 76.2 0.0
06 11:55 W 20 G 28 16.09 Light Rain NULL 19.2 11.5 61% 76.2 0.0
06 11:35 SW 15 16.09 NULL NULL 18.7 11.1 61% 76.17 0.0
06 11:15 W 11 16.09 NULL NULL 19.1 11.2 60% 76.15 0.0
06 10:55 SW 11 16.09 NULL NULL 19.2 11.4 61% 76.1 0.0
06 10:35 SW 7 16.09 NULL NULL 18.8 11.3 62% 76.07 0.0
06 10:15 W 11 16.09 NULL NULL 18.2 11 63% 76.1 0.0
06 09:55 SW 17 G 30 16.09 NULL NULL 18 10.6 62% 76.1 0.0
06 09:35 W 15 G 28 16.09 NULL NULL 17.7 10.5 63% 76.07 0.0
06 09:15 W 20 G 30 16.09 NULL NULL 17.2 10 63% 76.07 0.0
06 08:55 S 9 G 30 16.09 NULL NULL 15.7 9.4 66% 76.07 0.0
06 08:35 Calm 16.09 NULL NULL 16 9.7 66% 76.07 0.0
06 07:55 Calm 16.09 NULL NULL 14.7 9.1 15.5 12.1 69% 76.07 0.0
06 07:35 Calm 16.09 NULL NULL 14.7 8.9 68% 76.05 0.0
06 07:15 SW 7 16.09 NULL NULL 14.5 8.7 68% 76.07 0.0
06 06:55 W 13 16.09 NULL NULL 13.2 8.7 74% 76.05 0.0
06 06:35 S 6 16.09 NULL NULL 13.1 8.7 75% 76.02 0.0
06 06:15 S 15 G 30 16.09 NULL NULL 12.3 9 80% 76.05 0.0
06 05:55 S 13 G 28 16.09 NULL NULL 12.1 9 82% 76 0.0
06 05:35 S 15 16.09 NULL NULL 12.5 8.8 78% 76.02 0.0
06 05:15 S 9 16.09 NULL NULL 12.8 8.4 75% 76.05 0.0
06 04:55 S 13 16.09 NULL NULL 12.5 8.5 77% 76.05 0.0
06 04:35 S 17 16.09 NULL NULL 13.1 8.3 73% 76.07 0.0
06 04:15 SW 9 16.09 NULL NULL 13 8 72% 76.07 0.0
06 03:55 E 9 16.09 NULL NULL 13.1 7.7 70% 76.07 0.0
06 03:35 E 11 16.09 NULL NULL 13.4 7.5 68% 76.07 0.0
06 03:15 Calm 16.09 NULL NULL 14.4 7 61% 76.07 0.0
06 02:55 S 7 16.09 NULL NULL 14.7 7 60% 76.1 0.0
06 02:35 E 6 16.09 NULL NULL 15.5 7.1 58% 76.07 0.0
06 02:15 S 6 16.09 NULL NULL 14.8 7 60% 76.07 0.0
06 01:55 SW 7 16.09 NULL NULL 15.2 6.7 17.4 13.8 57% 76.12 0.0
06 01:35 Calm 16.09 NULL NULL 14.3 6.9 61% 76.12 0.0
06 01:15 Calm 16.09 NULL NULL 14.7 6.5 58% 76.15 0.0
06 00:55 SE 7 16.09 NULL NULL 14.3 6.5 60% 76.15 0.0
06 00:35 S 6 16.09 NULL NULL 15.1 6.3 56% 76.17 0.0
06 00:15 S 6 16.09 NULL NULL 15.2 6.2 55% 76.17 0.0
05 23:55 S 15 G 28 16.09 NULL NULL 15.3 6.2 55% 76.17 0.0
05 23:35 S 7 16.09 NULL NULL 15.5 6.1 54% 76.17 0.0
05 23:15 Calm 16.09 NULL NULL 15.6 6 53% 76.17 0.0
05 22:55 Calm 16.09 NULL NULL 15.9 6 52% 76.17 0.0
05 22:35 S 15 16.09 NULL NULL 16.2 6 51% 76.17 0.0
05 22:15 S 7 16.09 NULL NULL 16.2 6 51% 76.17 0.0
05 21:55 W 9 16.09 NULL NULL 16.6 5.8 49% 76.17 0.0
05 21:35 W 7 16.09 NULL NULL 16.6 5.7 49% 76.17 0.0
Date Time (edt) Wind (kph) Vis. (km) Weather Sky Cond. Air Dwpt Max. Min. Relative Humidity Wind Chill (°C) Heat Index (°C) altimeter (cm) sea level (mb) 1 hr 3 hr 6 hr
6 hour
Temperature (ºC) Pressure Precipitation (cm)